createdAt,value
2022-08-03T00:00:09.011Z,16.65
2022-08-03T00:00:46.432Z,16.65
2022-08-03T00:01:18.673Z,16.71
2022-08-03T00:01:50.478Z,16.74
2022-08-03T00:02:22.207Z,16.76
2022-08-03T00:02:53.900Z,16.68
2022-08-03T00:03:25.669Z,16.66
2022-08-03T00:03:57.297Z,16.59
2022-08-03T00:04:33.905Z,16.61
2022-08-03T00:05:08.372Z,16.63
2022-08-03T00:05:40.151Z,16.64
2022-08-03T00:06:36.492Z,16.67
2022-08-03T00:07:08.678Z,16.65
2022-08-03T00:07:41.148Z,16.58
2022-08-03T00:08:12.709Z,16.65
2022-08-03T00:08:44.327Z,16.69
2022-08-03T00:09:15.919Z,16.65
2022-08-03T00:09:47.460Z,16.58
2022-08-03T00:10:19.087Z,16.60
2022-08-03T00:10:50.786Z,16.53
2022-08-03T00:11:22.377Z,16.54
2022-08-03T00:11:53.958Z,16.54
2022-08-03T00:12:25.485Z,16.56
2022-08-03T00:12:57.163Z,16.54
2022-08-03T00:13:28.780Z,16.58
2022-08-03T00:14:00.770Z,16.60
2022-08-03T00:14:32.370Z,16.51
2022-08-03T00:15:04.430Z,16.49
2022-08-03T00:15:42.913Z,16.53
2022-08-03T00:16:14.720Z,16.48
2022-08-03T00:16:46.245Z,16.43
2022-08-03T00:17:17.805Z,16.46
2022-08-03T00:17:52.333Z,16.46
2022-08-03T00:18:25.548Z,16.42
2022-08-03T00:18:57.288Z,16.42
2022-08-03T00:19:28.925Z,16.46
2022-08-03T00:20:00.482Z,16.48
2022-08-03T00:20:32.231Z,16.42
2022-08-03T00:21:04.477Z,16.41
2022-08-03T00:21:36.091Z,16.34
2022-08-03T00:22:07.664Z,16.29
2022-08-03T00:22:39.540Z,16.17
2022-08-03T00:23:11.448Z,16.12
2022-08-03T00:23:51.437Z,16.10
2022-08-03T00:24:24.428Z,16.11
2022-08-03T00:24:56.017Z,16.11
2022-08-03T00:25:27.829Z,16.11
2022-08-03T00:25:59.407Z,16.08
2022-08-03T00:26:31.745Z,16.05
2022-08-03T00:27:03.782Z,16.09
2022-08-03T00:27:38.066Z,16.16
2022-08-03T00:28:09.969Z,16.20
2022-08-03T00:28:42.018Z,16.28
2022-08-03T00:29:13.550Z,16.21
2022-08-03T00:29:59.409Z,16.21
2022-08-03T00:30:32.664Z,16.16
2022-08-03T00:31:04.227Z,16.17
2022-08-03T00:31:51.582Z,16.22
2022-08-03T00:32:24.795Z,16.16
2022-08-03T00:32:56.576Z,16.15
2022-08-03T00:33:28.296Z,16.13
2022-08-03T00:34:29.153Z,16.14
2022-08-03T00:35:09.859Z,16.03
2022-08-03T00:35:50.495Z,15.97
2022-08-03T00:36:23.527Z,16.04
2022-08-03T00:36:55.076Z,16.07
2022-08-03T00:37:40.908Z,16.08
2022-08-03T00:38:13.383Z,16.04
2022-08-03T00:38:44.956Z,16.06
2022-08-03T00:39:16.502Z,16.12
2022-08-03T00:39:48.123Z,16.08
2022-08-03T00:40:20.481Z,16.08
2022-08-03T00:40:52.084Z,16.06
2022-08-03T00:41:23.834Z,16.04
2022-08-03T00:41:55.382Z,16.04
2022-08-03T00:42:28.507Z,15.99
2022-08-03T00:43:05.143Z,16.03
2022-08-03T00:43:36.677Z,16.07
2022-08-03T00:44:08.259Z,16.15
2022-08-03T00:44:41.032Z,16.16
2022-08-03T00:45:13.455Z,16.14
2022-08-03T00:45:45.171Z,16.14
2022-08-03T00:46:21.422Z,16.11
2022-08-03T00:46:53.582Z,16.06
2022-08-03T00:47:25.129Z,16.12
2022-08-03T00:47:57.353Z,16.16
2022-08-03T00:48:33.053Z,16.17
2022-08-03T00:49:07.820Z,16.15
2022-08-03T00:49:42.850Z,16.07
2022-08-03T00:50:17.826Z,16.01
2022-08-03T00:50:49.659Z,16.00
2022-08-03T00:51:25.644Z,15.91
2022-08-03T00:51:57.198Z,15.97
2022-08-03T00:52:28.761Z,16.01
2022-08-03T00:53:01.239Z,15.98
2022-08-03T00:53:34.906Z,16.01
2022-08-03T00:54:06.415Z,16.00
2022-08-03T00:54:38.453Z,16.06
2022-08-03T00:55:10.851Z,16.13
2022-08-03T00:55:42.513Z,16.16
2022-08-03T00:56:15.312Z,16.19
2022-08-03T00:56:59.292Z,16.22
2022-08-03T00:57:33.104Z,16.27
2022-08-03T00:58:08.093Z,16.29
2022-08-03T00:58:39.617Z,16.24
2022-08-03T00:59:11.415Z,16.25
2022-08-03T00:59:46.132Z,16.21
2022-08-03T01:00:21.195Z,16.21
2022-08-03T01:00:54.486Z,16.19
2022-08-03T01:01:26.223Z,16.18
2022-08-03T01:02:03.919Z,16.18
2022-08-03T01:02:35.716Z,16.17
2022-08-03T01:03:08.633Z,16.18
2022-08-03T01:03:40.932Z,16.22
2022-08-03T01:04:12.594Z,16.20
2022-08-03T01:04:44.122Z,16.20
2022-08-03T01:05:15.971Z,16.23
2022-08-03T01:06:03.365Z,16.24
2022-08-03T01:07:10.706Z,16.26
2022-08-03T01:07:52.860Z,16.11
2022-08-03T01:08:43.052Z,16.05
2022-08-03T01:09:43.888Z,16.07
2022-08-03T01:10:37.704Z,15.99
2022-08-03T01:11:15.767Z,15.97
2022-08-03T01:12:01.259Z,15.89
2022-08-03T01:12:40.715Z,15.88
2022-08-03T01:14:03.583Z,15.73
2022-08-03T01:15:11.045Z,15.87
2022-08-03T01:16:05.724Z,15.83
2022-08-03T01:17:14.487Z,15.89
2022-08-03T01:17:52.303Z,15.87
2022-08-03T01:18:26.373Z,15.82
2022-08-03T01:19:24.093Z,15.87
2022-08-03T01:20:08.471Z,15.85
2022-08-03T01:20:44.577Z,15.87
2022-08-03T01:21:29.580Z,15.91
2022-08-03T01:22:25.052Z,15.88
2022-08-03T01:23:24.541Z,15.95
2022-08-03T01:24:23.847Z,15.82
2022-08-03T01:25:04.001Z,15.83
2022-08-03T01:25:54.504Z,15.84
2022-08-03T01:26:57.106Z,15.76
2022-08-03T01:28:08.443Z,15.77
2022-08-03T01:28:45.655Z,15.76
2022-08-03T01:29:54.747Z,15.80
2022-08-03T01:30:34.026Z,15.83
2022-08-03T01:31:08.380Z,15.81
2022-08-03T01:32:53.593Z,15.68
2022-08-03T01:32:59.325Z,15.69
2022-08-03T01:33:42.180Z,15.84
2022-08-03T01:34:16.041Z,15.86
2022-08-03T01:35:02.014Z,15.83
2022-08-03T01:36:00.027Z,15.89
2022-08-03T01:36:38.636Z,15.84
2022-08-03T01:37:11.344Z,15.87
2022-08-03T01:37:48.472Z,15.99
2022-08-03T01:38:29.646Z,16.03
2022-08-03T01:39:09.341Z,15.83
2022-08-03T01:39:41.562Z,15.86
2022-08-03T01:40:14.460Z,15.82
2022-08-03T01:40:47.097Z,15.81
2022-08-03T01:41:25.858Z,15.75
2022-08-03T01:42:00.330Z,15.82
2022-08-03T01:42:32.798Z,15.85
2022-08-03T01:43:06.550Z,15.85
2022-08-03T01:44:26.732Z,15.86
2022-08-03T01:44:51.835Z,15.82
2022-08-03T01:45:24.453Z,15.82
2022-08-03T01:45:57.369Z,15.87
2022-08-03T01:46:31.260Z,15.91
2022-08-03T01:47:03.757Z,15.92
2022-08-03T01:47:35.984Z,15.89
2022-08-03T01:48:07.616Z,15.87
2022-08-03T01:48:42.971Z,15.84
2022-08-03T01:49:15.393Z,15.83
2022-08-03T01:49:48.238Z,15.83
2022-08-03T01:50:23.683Z,15.75
2022-08-03T01:50:55.854Z,15.85
2022-08-03T01:51:56.111Z,15.86
2022-08-03T01:52:21.736Z,15.89
2022-08-03T01:52:54.976Z,15.89
2022-08-03T01:53:26.775Z,15.92
2022-08-03T01:53:58.974Z,15.98
2022-08-03T01:54:31.692Z,16.00
2022-08-03T01:55:04.310Z,16.02
2022-08-03T01:55:36.769Z,16.08
2022-08-03T01:56:08.782Z,15.97
2022-08-03T01:56:41.503Z,15.83
2022-08-03T01:57:13.512Z,15.74
2022-08-03T01:58:06.148Z,15.84
2022-08-03T01:58:37.855Z,15.84
2022-08-03T01:59:11.671Z,15.80
2022-08-03T01:59:44.833Z,15.83
2022-08-03T02:00:16.947Z,15.75
2022-08-03T02:00:51.554Z,15.77
2022-08-03T02:01:24.008Z,15.67
2022-08-03T02:02:15.624Z,15.69
2022-08-03T02:02:49.633Z,15.64
2022-08-03T02:03:23.319Z,15.66
2022-08-03T02:04:00.845Z,15.54
2022-08-03T02:04:33.281Z,15.56
2022-08-03T02:05:10.875Z,15.57
2022-08-03T02:05:45.463Z,15.57
2022-08-03T02:07:00.305Z,15.52
2022-08-03T02:07:12.098Z,15.50
2022-08-03T02:07:45.275Z,15.45
2022-08-03T02:08:18.435Z,15.48
2022-08-03T02:08:51.674Z,15.38
2022-08-03T02:09:23.892Z,15.42
2022-08-03T02:09:55.980Z,15.45
2022-08-03T02:10:35.509Z,15.47
2022-08-03T02:11:07.979Z,15.41
2022-08-03T02:11:40.385Z,15.36
2022-08-03T02:12:14.730Z,15.43
2022-08-03T02:12:51.024Z,15.45
2022-08-03T02:13:24.843Z,15.51
2022-08-03T02:13:58.488Z,15.55
2022-08-03T02:14:31.207Z,15.52
2022-08-03T02:15:03.388Z,15.49
2022-08-03T02:15:37.462Z,15.46
2022-08-03T02:16:09.356Z,15.43
2022-08-03T02:16:40.880Z,15.41
2022-08-03T02:17:12.906Z,15.40
2022-08-03T02:17:46.035Z,15.37
2022-08-03T02:18:18.520Z,15.38
2022-08-03T02:18:50.739Z,15.42
2022-08-03T02:19:22.935Z,15.45
2022-08-03T02:19:56.654Z,15.35
2022-08-03T02:20:28.611Z,15.36
2022-08-03T02:21:01.568Z,15.43
2022-08-03T02:21:57.494Z,15.50
2022-08-03T02:22:33.909Z,15.56
2022-08-03T02:23:06.696Z,15.55
2022-08-03T02:23:38.607Z,15.59
2022-08-03T02:24:11.020Z,15.58
2022-08-03T02:24:42.589Z,15.60
2022-08-03T02:25:20.886Z,15.59
2022-08-03T02:25:59.960Z,15.65
2022-08-03T02:26:35.654Z,15.70
2022-08-03T02:27:13.397Z,15.72
2022-08-03T02:28:09.039Z,15.79
2022-08-03T02:28:43.503Z,15.70
2022-08-03T02:29:20.632Z,15.67
2022-08-03T02:30:14.290Z,15.63
2022-08-03T02:30:51.886Z,15.58
2022-08-03T02:31:29.675Z,15.57
2022-08-03T02:32:04.507Z,15.48
2022-08-03T02:32:39.248Z,15.43
2022-08-03T02:33:32.527Z,15.35
2022-08-03T02:34:09.025Z,15.27
2022-08-03T02:34:42.497Z,15.26
2022-08-03T02:35:15.961Z,15.15
2022-08-03T02:35:47.665Z,15.12
2022-08-03T02:36:25.904Z,15.00
2022-08-03T02:37:00.331Z,14.95
2022-08-03T02:37:34.792Z,14.95
2022-08-03T02:38:08.397Z,14.98
2022-08-03T02:38:43.153Z,14.95
2022-08-03T02:39:17.599Z,15.01
2022-08-03T02:39:49.303Z,15.06
2022-08-03T02:40:21.668Z,14.99
2022-08-03T02:40:55.619Z,15.01
2022-08-03T02:41:32.294Z,14.98
2022-08-03T02:42:08.620Z,14.98
2022-08-03T02:42:41.809Z,15.00
2022-08-03T02:43:18.477Z,15.08
2022-08-03T02:44:06.171Z,14.94
2022-08-03T02:44:39.835Z,15.05
2022-08-03T02:45:15.663Z,14.99
2022-08-03T02:45:49.563Z,15.01
2022-08-03T02:46:31.223Z,15.01
2022-08-03T02:47:05.625Z,15.03
2022-08-03T02:47:53.238Z,15.01
2022-08-03T02:48:29.368Z,14.99
2022-08-03T02:49:40.510Z,15.01
2022-08-03T02:49:54.768Z,15.08
2022-08-03T02:50:27.566Z,15.01
2022-08-03T02:50:59.969Z,14.97
2022-08-03T02:51:34.097Z,14.93
2022-08-03T02:52:13.108Z,14.95
2022-08-03T02:52:46.111Z,14.89
2022-08-03T02:53:18.220Z,14.90
2022-08-03T02:53:51.667Z,14.99
2022-08-03T02:54:25.050Z,14.97
2022-08-03T02:55:00.340Z,14.94
2022-08-03T02:55:34.497Z,14.89
2022-08-03T02:56:07.077Z,14.93
2022-08-03T02:56:39.453Z,14.92
2022-08-03T02:57:11.564Z,14.93
2022-08-03T02:57:44.818Z,14.90
2022-08-03T02:58:18.714Z,14.92
2022-08-03T02:58:50.431Z,14.89
2022-08-03T02:59:22.614Z,14.91
2022-08-03T02:59:55.570Z,14.96
2022-08-03T03:00:28.481Z,15.00
2022-08-03T03:01:00.557Z,15.01
2022-08-03T03:01:32.275Z,15.08
2022-08-03T03:02:04.429Z,15.08
2022-08-03T03:02:36.941Z,15.09
2022-08-03T03:03:09.620Z,15.15
2022-08-03T03:03:44.912Z,15.11
2022-08-03T03:04:17.403Z,15.04
2022-08-03T03:05:50.885Z,15.09
2022-08-03T03:05:53.244Z,15.02
2022-08-03T03:06:29.231Z,15.09
2022-08-03T03:07:03.755Z,15.04
2022-08-03T03:07:51.255Z,15.12
2022-08-03T03:08:28.094Z,15.08
2022-08-03T03:09:00.570Z,15.02
2022-08-03T03:09:41.663Z,15.07
2022-08-03T03:10:14.913Z,15.05
2022-08-03T03:10:47.416Z,14.98
2022-08-03T03:11:21.116Z,14.99
2022-08-03T03:11:53.377Z,14.98
2022-08-03T03:12:26.161Z,15.03
2022-08-03T03:12:58.627Z,15.02
2022-08-03T03:13:31.185Z,15.07
2022-08-03T03:14:02.816Z,15.08
2022-08-03T03:14:34.846Z,15.04
2022-08-03T03:15:06.820Z,15.02
2022-08-03T03:15:39.426Z,15.03
2022-08-03T03:16:13.523Z,15.02
2022-08-03T03:16:47.141Z,15.01
2022-08-03T03:17:24.509Z,14.95
2022-08-03T03:17:56.732Z,14.94
2022-08-03T03:18:29.106Z,15.00
2022-08-03T03:19:01.997Z,15.01
2022-08-03T03:19:34.371Z,14.98
2022-08-03T03:20:07.024Z,15.01
2022-08-03T03:20:39.321Z,14.94
2022-08-03T03:21:11.382Z,14.92
2022-08-03T03:21:44.112Z,14.92
2022-08-03T03:22:16.229Z,14.91
2022-08-03T03:22:51.754Z,14.92
2022-08-03T03:23:25.051Z,14.90
2022-08-03T03:23:57.034Z,14.88
2022-08-03T03:24:29.773Z,14.86
2022-08-03T03:25:02.074Z,14.87
2022-08-03T03:25:34.517Z,14.84
2022-08-03T03:26:07.229Z,14.87
2022-08-03T03:26:42.392Z,14.81
2022-08-03T03:27:16.650Z,14.82
2022-08-03T03:27:49.494Z,14.77
2022-08-03T03:28:25.557Z,14.72
2022-08-03T03:28:57.160Z,14.76
2022-08-03T03:29:28.868Z,14.77
2022-08-03T03:30:00.616Z,14.80
2022-08-03T03:30:32.169Z,14.86
2022-08-03T03:31:06.233Z,14.86
2022-08-03T03:31:37.807Z,14.82
2022-08-03T03:32:09.553Z,14.82
2022-08-03T03:32:41.552Z,14.81
2022-08-03T03:33:13.222Z,14.83
2022-08-03T03:33:44.882Z,14.81
2022-08-03T03:34:16.592Z,14.80
2022-08-03T03:34:48.145Z,14.80
2022-08-03T03:35:19.767Z,14.76
2022-08-03T03:35:51.915Z,14.74
2022-08-03T03:36:23.491Z,14.74
2022-08-03T03:36:55.143Z,14.75
2022-08-03T03:37:27.029Z,14.73
2022-08-03T03:37:58.660Z,14.72
2022-08-03T03:38:30.549Z,14.77
2022-08-03T03:39:15.265Z,14.77
2022-08-03T03:39:47.759Z,14.82
2022-08-03T03:40:19.566Z,14.86
2022-08-03T03:40:51.319Z,14.86
2022-08-03T03:41:23.037Z,14.83
2022-08-03T03:41:54.897Z,14.87
2022-08-03T03:42:26.862Z,14.96
2022-08-03T03:42:58.396Z,15.02
2022-08-03T03:43:30.027Z,14.96
2022-08-03T03:44:01.548Z,14.92
2022-08-03T03:44:33.164Z,14.94
2022-08-03T03:45:06.424Z,14.92
2022-08-03T03:45:38.520Z,14.94
2022-08-03T03:46:13.000Z,14.96
2022-08-03T03:46:44.613Z,14.87
2022-08-03T03:47:16.628Z,14.90
2022-08-03T03:47:48.265Z,14.85
2022-08-03T03:48:20.093Z,14.91
2022-08-03T03:48:51.689Z,14.89
2022-08-03T03:49:23.579Z,14.87
2022-08-03T03:49:55.146Z,14.91
2022-08-03T03:50:30.070Z,14.95
2022-08-03T03:51:01.795Z,14.98
2022-08-03T03:51:33.501Z,15.00
2022-08-03T03:52:05.349Z,14.93
2022-08-03T03:52:37.184Z,14.97
2022-08-03T03:53:10.747Z,14.94
2022-08-03T03:53:54.912Z,14.87
2022-08-03T03:54:29.059Z,14.89
2022-08-03T03:55:01.640Z,14.82
2022-08-03T03:55:33.562Z,14.86
2022-08-03T03:56:05.352Z,14.84
2022-08-03T03:56:36.987Z,14.80
2022-08-03T03:57:10.451Z,14.83
2022-08-03T03:57:44.807Z,14.83
2022-08-03T03:58:17.178Z,14.80
2022-08-03T03:58:48.898Z,14.71
2022-08-03T03:59:20.489Z,14.73
2022-08-03T03:59:52.359Z,14.75
2022-08-03T04:00:23.910Z,14.70
2022-08-03T04:00:55.664Z,14.77
2022-08-03T04:01:27.466Z,14.78
2022-08-03T04:01:59.459Z,14.70
2022-08-03T04:02:31.070Z,14.62
2022-08-03T04:03:02.832Z,14.70
2022-08-03T04:03:35.758Z,14.76
2022-08-03T04:04:26.125Z,14.85
2022-08-03T04:05:16.255Z,14.83
2022-08-03T04:06:06.217Z,14.79
2022-08-03T04:06:56.157Z,14.89
2022-08-03T04:08:06.574Z,14.88
2022-08-03T04:08:56.870Z,14.87
2022-08-03T04:09:46.826Z,14.92
2022-08-03T04:10:41.514Z,14.94
2022-08-03T04:11:28.990Z,14.83
2022-08-03T04:12:01.838Z,14.78
2022-08-03T04:12:34.075Z,14.79
2022-08-03T04:13:10.180Z,14.82
2022-08-03T04:13:53.553Z,14.87
2022-08-03T04:14:36.534Z,14.93
2022-08-03T04:15:09.122Z,14.79
2022-08-03T04:15:41.674Z,14.83
2022-08-03T04:16:14.858Z,14.78
2022-08-03T04:16:50.216Z,14.78
2022-08-03T04:17:23.937Z,14.85
2022-08-03T04:17:58.035Z,14.87
2022-08-03T04:18:31.755Z,14.88
2022-08-03T04:19:08.131Z,14.87
2022-08-03T04:19:44.189Z,14.90
2022-08-03T04:20:17.366Z,14.88
2022-08-03T04:20:49.894Z,14.89
2022-08-03T04:21:23.444Z,14.90
2022-08-03T04:21:59.031Z,14.90
2022-08-03T04:22:32.600Z,14.98
2022-08-03T04:23:04.651Z,14.94
2022-08-03T04:23:48.252Z,14.97
2022-08-03T04:24:20.411Z,15.02
2022-08-03T04:25:00.346Z,15.01
2022-08-03T04:25:34.279Z,15.06
2022-08-03T04:26:10.014Z,15.10
2022-08-03T04:26:43.422Z,15.11
2022-08-03T04:27:17.093Z,15.09
2022-08-03T04:28:29.239Z,15.11
2022-08-03T04:28:44.864Z,15.18
2022-08-03T04:29:17.169Z,15.18
2022-08-03T04:29:52.235Z,15.14
2022-08-03T04:30:24.588Z,15.15
2022-08-03T04:30:56.903Z,15.15
2022-08-03T04:31:29.614Z,15.17
2022-08-03T04:32:08.714Z,15.17
2022-08-03T04:32:45.812Z,15.20
2022-08-03T04:33:18.834Z,15.16
2022-08-03T04:33:51.993Z,15.14
2022-08-03T04:34:23.634Z,15.14
2022-08-03T04:34:55.219Z,15.12
2022-08-03T04:35:58.632Z,15.17
2022-08-03T04:36:24.200Z,15.20
2022-08-03T04:36:59.622Z,15.28
2022-08-03T04:37:39.397Z,15.35
2022-08-03T04:38:13.497Z,15.41
2022-08-03T04:38:55.993Z,15.47
2022-08-03T04:39:30.365Z,15.54
2022-08-03T04:40:03.801Z,15.61
2022-08-03T04:40:37.502Z,15.75
2022-08-03T04:41:09.431Z,15.75
2022-08-03T04:42:07.165Z,15.77
2022-08-03T04:42:37.285Z,15.84
2022-08-03T04:43:10.373Z,15.83
2022-08-03T04:43:42.325Z,15.88
2022-08-03T04:44:14.870Z,15.95
2022-08-03T04:44:47.007Z,16.04
2022-08-03T04:45:19.389Z,16.08
2022-08-03T04:45:51.486Z,16.14
2022-08-03T04:46:25.932Z,16.23
2022-08-03T04:46:58.102Z,16.32
2022-08-03T04:47:32.586Z,16.36
2022-08-03T04:48:05.003Z,16.42
2022-08-03T04:48:36.929Z,16.52
2022-08-03T04:49:09.331Z,16.62
2022-08-03T04:49:43.732Z,16.65
2022-08-03T04:50:20.875Z,16.65
2022-08-03T04:51:10.886Z,16.63
2022-08-03T04:51:42.836Z,16.65
2022-08-03T04:52:14.798Z,16.69
2022-08-03T04:52:46.702Z,16.80
2022-08-03T04:53:18.240Z,16.96
2022-08-03T04:53:51.347Z,17.05
2022-08-03T04:54:24.656Z,17.13
2022-08-03T04:54:56.837Z,17.16
2022-08-03T04:55:30.006Z,17.06
2022-08-03T04:56:07.817Z,17.21
2022-08-03T04:56:43.317Z,17.28
2022-08-03T04:57:22.205Z,17.33
2022-08-03T04:57:54.316Z,17.13
2022-08-03T04:58:25.812Z,17.21
2022-08-03T04:58:57.367Z,17.28
2022-08-03T04:59:28.872Z,17.33
2022-08-03T05:00:03.186Z,17.22
2022-08-03T05:00:35.314Z,17.27
2022-08-03T05:01:06.834Z,17.32
2022-08-03T05:01:40.642Z,17.34
2022-08-03T05:02:12.214Z,17.37
2022-08-03T05:02:43.734Z,17.42
2022-08-03T05:03:19.418Z,17.43
2022-08-03T05:03:55.266Z,17.44
2022-08-03T05:04:26.808Z,17.53
2022-08-03T05:04:58.712Z,17.56
2022-08-03T05:05:37.827Z,17.54
2022-08-03T05:06:21.761Z,17.66
2022-08-03T05:06:56.738Z,17.70
2022-08-03T05:07:35.559Z,17.75
2022-08-03T05:08:11.067Z,17.76
2022-08-03T05:08:47.216Z,17.75
2022-08-03T05:09:49.624Z,17.83
2022-08-03T05:10:16.069Z,17.89
2022-08-03T05:10:48.547Z,17.91
2022-08-03T05:11:20.216Z,17.96
2022-08-03T05:11:51.759Z,18.01
2022-08-03T05:12:23.808Z,18.04
2022-08-03T05:12:55.361Z,18.07
2022-08-03T05:13:26.951Z,18.08
2022-08-03T05:13:58.462Z,18.11
2022-08-03T05:14:30.353Z,18.16
2022-08-03T05:15:02.178Z,18.23
2022-08-03T05:15:33.773Z,18.27
2022-08-03T05:16:14.976Z,18.35
2022-08-03T05:16:46.583Z,18.40
2022-08-03T05:17:19.522Z,18.47
2022-08-03T05:17:51.073Z,18.42
2022-08-03T05:18:22.618Z,18.52
2022-08-03T05:18:54.221Z,18.57
2022-08-03T05:19:25.735Z,18.62
2022-08-03T05:19:57.436Z,18.60
2022-08-03T05:20:28.966Z,18.65
2022-08-03T05:21:00.487Z,18.68
2022-08-03T05:21:51.967Z,18.73
2022-08-03T05:22:24.024Z,18.74
2022-08-03T05:22:55.617Z,18.84
2022-08-03T05:23:27.339Z,18.88
2022-08-03T05:23:58.861Z,18.83
2022-08-03T05:24:30.465Z,18.94
2022-08-03T05:25:02.396Z,18.98
2022-08-03T05:25:33.955Z,19.02
2022-08-03T05:26:05.523Z,19.06
2022-08-03T05:26:37.261Z,19.06
2022-08-03T05:27:08.803Z,19.06
2022-08-03T05:27:40.423Z,19.09
2022-08-03T05:28:11.930Z,19.19
2022-08-03T05:28:51.380Z,19.13
2022-08-03T05:29:23.241Z,19.20
2022-08-03T05:29:56.834Z,19.26
2022-08-03T05:30:53.382Z,19.38
2022-08-03T05:31:24.973Z,19.41
2022-08-03T05:31:56.560Z,19.42
2022-08-03T05:32:28.114Z,19.41
2022-08-03T05:33:00.030Z,19.40
2022-08-03T05:33:31.640Z,19.41
2022-08-03T05:34:03.171Z,19.53
2022-08-03T05:34:34.805Z,19.57
2022-08-03T05:35:56.072Z,19.58
2022-08-03T05:36:03.144Z,19.63
2022-08-03T05:36:35.346Z,19.67
2022-08-03T05:37:07.423Z,19.71
2022-08-03T05:37:39.605Z,19.67
2022-08-03T05:38:34.861Z,19.73
2022-08-03T05:39:06.948Z,19.68
2022-08-03T05:39:38.477Z,19.71
2022-08-03T05:40:10.698Z,19.75
2022-08-03T05:40:56.933Z,19.80
2022-08-03T05:41:37.259Z,19.83
2022-08-03T05:42:09.097Z,19.84
2022-08-03T05:42:40.793Z,19.80
2022-08-03T05:43:12.290Z,19.75
2022-08-03T05:43:44.867Z,19.82
2022-08-03T05:44:16.390Z,19.81
2022-08-03T05:44:47.909Z,19.81
2022-08-03T05:45:19.942Z,19.88
2022-08-03T05:46:12.312Z,19.95
2022-08-03T05:46:43.080Z,20.05
2022-08-03T05:47:14.771Z,20.10
2022-08-03T05:47:46.351Z,20.12
2022-08-03T05:48:17.917Z,20.18
2022-08-03T05:48:49.756Z,20.18
2022-08-03T05:49:21.323Z,20.17
2022-08-03T05:49:52.862Z,20.23
2022-08-03T05:50:24.465Z,20.18
2022-08-03T05:50:56.079Z,20.25
2022-08-03T05:51:28.908Z,20.33
2022-08-03T05:52:14.056Z,20.44
2022-08-03T05:52:49.481Z,20.48
2022-08-03T05:53:21.493Z,20.51
2022-08-03T05:53:53.062Z,20.64
2022-08-03T05:54:24.647Z,20.73
2022-08-03T05:55:16.645Z,21.16
2022-08-03T05:55:52.618Z,21.31
2022-08-03T05:56:26.435Z,21.42
2022-08-03T05:56:58.052Z,21.87
2022-08-03T05:57:29.691Z,22.10
2022-08-03T05:58:03.803Z,22.91
2022-08-03T05:58:42.811Z,23.12
2022-08-03T05:59:37.139Z,23.56
2022-08-03T06:00:07.989Z,23.89
2022-08-03T06:00:43.912Z,24.01
2022-08-03T06:01:16.977Z,24.31
2022-08-03T06:01:48.851Z,24.64
2022-08-03T06:02:20.424Z,24.80
2022-08-03T06:02:51.930Z,25.19
2022-08-03T06:03:23.535Z,25.37
2022-08-03T06:03:55.129Z,25.50
2022-08-03T06:04:26.656Z,25.86
2022-08-03T06:04:58.263Z,25.94
2022-08-03T06:05:29.971Z,26.35
2022-08-03T06:06:01.597Z,26.34
2022-08-03T06:06:33.155Z,26.71
2022-08-03T06:07:04.675Z,26.73
2022-08-03T06:07:36.369Z,26.83
2022-08-03T06:08:07.939Z,26.71
2022-08-03T06:08:40.860Z,27.12
2022-08-03T06:09:12.400Z,27.05
2022-08-03T06:10:34.492Z,27.01
2022-08-03T06:10:38.343Z,26.69
2022-08-03T06:11:13.623Z,27.02
2022-08-03T06:11:45.224Z,26.69
2022-08-03T06:12:17.836Z,26.83
2022-08-03T06:12:50.927Z,26.96
2022-08-03T06:13:22.524Z,27.65
2022-08-03T06:13:54.243Z,27.57
2022-08-03T06:14:25.890Z,28.09
2022-08-03T06:14:57.503Z,27.82
2022-08-03T06:15:29.195Z,27.43
2022-08-03T06:16:00.724Z,27.84
2022-08-03T06:16:32.461Z,28.40
2022-08-03T06:17:04.023Z,28.14
2022-08-03T06:17:44.857Z,28.17
2022-08-03T06:18:16.312Z,28.19
2022-08-03T06:18:47.888Z,28.43
2022-08-03T06:19:19.488Z,27.79
2022-08-03T06:19:53.972Z,28.35
2022-08-03T06:20:27.248Z,28.46
2022-08-03T06:21:09.461Z,28.57
2022-08-03T06:21:47.349Z,29.09
2022-08-03T06:22:19.343Z,29.34
2022-08-03T06:23:00.126Z,29.02
2022-08-03T06:23:37.870Z,29.20
2022-08-03T06:24:25.115Z,28.14
2022-08-03T06:24:56.756Z,28.37
2022-08-03T06:25:29.366Z,28.22
2022-08-03T06:26:01.829Z,28.84
2022-08-03T06:26:33.383Z,28.71
2022-08-03T06:27:05.050Z,28.91
2022-08-03T06:27:40.018Z,28.63
2022-08-03T06:28:35.402Z,28.72
2022-08-03T06:29:05.632Z,28.09
2022-08-03T06:29:40.370Z,27.53
2022-08-03T06:30:12.570Z,27.09
2022-08-03T06:30:44.996Z,27.37
2022-08-03T06:31:16.497Z,27.36
2022-08-03T06:31:48.232Z,27.22
2022-08-03T06:32:22.822Z,27.49
2022-08-03T06:32:54.889Z,26.64
2022-08-03T06:34:30.324Z,26.56
2022-08-03T06:34:33.976Z,26.28
2022-08-03T06:35:07.936Z,25.92
2022-08-03T06:35:39.497Z,25.68
2022-08-03T06:36:14.263Z,25.70
2022-08-03T06:36:48.446Z,25.35
2022-08-03T06:37:19.953Z,25.22
2022-08-03T06:37:51.793Z,25.15
2022-08-03T06:38:23.427Z,25.05
2022-08-03T06:38:54.928Z,25.02
2022-08-03T06:39:26.430Z,24.87
2022-08-03T06:39:58.118Z,25.28
2022-08-03T06:40:31.255Z,25.21
2022-08-03T06:41:02.843Z,25.37
2022-08-03T06:41:38.257Z,25.31
2022-08-03T06:42:16.580Z,25.26
2022-08-03T06:42:48.259Z,25.10
2022-08-03T06:43:22.210Z,25.27
2022-08-03T06:44:03.485Z,25.01
2022-08-03T06:44:37.585Z,25.09
2022-08-03T06:45:09.789Z,25.26
2022-08-03T06:45:42.236Z,25.19
2022-08-03T06:46:13.901Z,25.45
2022-08-03T06:46:45.498Z,25.67
2022-08-03T06:47:17.273Z,25.94
2022-08-03T06:48:00.255Z,26.36
2022-08-03T06:48:31.933Z,27.03
2022-08-03T06:49:03.615Z,26.95
2022-08-03T06:49:35.380Z,27.25
2022-08-03T06:50:16.445Z,27.38
2022-08-03T06:50:49.495Z,27.91
2022-08-03T06:51:21.039Z,27.89
2022-08-03T06:52:12.631Z,28.17
2022-08-03T06:53:04.790Z,28.69
2022-08-03T06:53:36.516Z,27.89
2022-08-03T06:54:08.120Z,27.95
2022-08-03T06:54:39.640Z,28.30
2022-08-03T06:55:11.982Z,28.72
2022-08-03T06:55:43.520Z,28.91
2022-08-03T06:56:15.040Z,29.17
2022-08-03T06:56:46.556Z,28.98
2022-08-03T06:57:19.214Z,28.71
2022-08-03T06:57:50.821Z,28.32
2022-08-03T06:58:22.805Z,28.01
2022-08-03T06:58:54.634Z,27.70
2022-08-03T07:00:09.298Z,27.93
2022-08-03T07:00:18.215Z,27.88
2022-08-03T07:00:49.859Z,27.37
2022-08-03T07:01:21.488Z,27.16
2022-08-03T07:01:53.079Z,27.29
2022-08-03T07:02:24.758Z,26.34
2022-08-03T07:03:00.022Z,25.72
2022-08-03T07:03:31.613Z,25.75
2022-08-03T07:04:04.642Z,25.64
2022-08-03T07:04:36.286Z,25.48
2022-08-03T07:05:09.658Z,25.18
2022-08-03T07:05:42.323Z,24.80
2022-08-03T07:06:13.866Z,24.62
2022-08-03T07:06:45.392Z,24.57
2022-08-03T07:07:17.551Z,24.82
2022-08-03T07:07:49.469Z,24.48
2022-08-03T07:08:33.107Z,24.50
2022-08-03T07:09:06.016Z,24.63
2022-08-03T07:09:37.569Z,24.71
2022-08-03T07:10:09.692Z,24.75
2022-08-03T07:10:41.337Z,24.46
2022-08-03T07:11:13.787Z,24.75
2022-08-03T07:11:45.372Z,25.10
2022-08-03T07:12:17.021Z,25.24
2022-08-03T07:12:55.698Z,25.75
2022-08-03T07:13:28.451Z,25.81
2022-08-03T07:14:00.006Z,26.07
2022-08-03T07:14:31.550Z,26.26
2022-08-03T07:15:04.529Z,26.56
2022-08-03T07:15:38.319Z,26.71
2022-08-03T07:16:26.770Z,27.42
2022-08-03T07:16:58.285Z,27.95
2022-08-03T07:17:31.519Z,27.75
2022-08-03T07:18:03.185Z,27.74
2022-08-03T07:18:38.920Z,27.66
2022-08-03T07:19:10.502Z,27.78
2022-08-03T07:19:42.087Z,28.43
2022-08-03T07:20:15.203Z,28.70
2022-08-03T07:20:49.812Z,29.06
2022-08-03T07:21:21.311Z,28.57
2022-08-03T07:21:53.627Z,28.90
2022-08-03T07:22:25.440Z,29.10
2022-08-03T07:22:56.934Z,29.16
2022-08-03T07:23:28.727Z,28.25
2022-08-03T07:24:00.249Z,28.57
2022-08-03T07:24:31.811Z,28.66
2022-08-03T07:25:04.956Z,27.99
2022-08-03T07:25:37.280Z,28.30
2022-08-03T07:26:08.816Z,28.21
2022-08-03T07:26:40.365Z,28.38
2022-08-03T07:27:12.050Z,28.14
2022-08-03T07:27:51.608Z,28.49
2022-08-03T07:28:23.441Z,28.44
2022-08-03T07:28:55.047Z,28.77
2022-08-03T07:29:26.638Z,28.40
2022-08-03T07:29:58.984Z,28.67
2022-08-03T07:30:30.629Z,28.72
2022-08-03T07:31:02.180Z,28.53
2022-08-03T07:31:34.410Z,28.30
2022-08-03T07:32:06.211Z,28.27
2022-08-03T07:32:37.888Z,28.38
2022-08-03T07:33:22.992Z,28.41
2022-08-03T07:33:54.682Z,28.41
2022-08-03T07:34:27.445Z,28.11
2022-08-03T07:35:01.073Z,28.25